sensor_id;sensor_type;location;lat;lon;timestamp;P1;durP1;ratioP1;P2;durP2;ratioP2
20794;SDS011;28087;-33.874;151.240;2023-05-08T00:02:03;1.35;;;0.55;;
20794;SDS011;28087;-33.874;151.240;2023-05-08T00:04:38;5.75;;;0.70;;
20794;SDS011;28087;-33.874;151.240;2023-05-08T00:07:13;3.50;;;0.70;;
20794;SDS011;28087;-33.874;151.240;2023-05-08T00:09:48;1.42;;;0.50;;
20794;SDS011;28087;-33.874;151.240;2023-05-08T00:12:25;4.53;;;0.60;;
20794;SDS011;28087;-33.874;151.240;2023-05-08T00:15:00;4.03;;;0.60;;
20794;SDS011;28087;-33.874;151.240;2023-05-08T00:17:35;2.83;;;0.55;;
20794;SDS011;28087;-33.874;151.240;2023-05-08T00:20:10;1.17;;;0.50;;
20794;SDS011;28087;-33.874;151.240;2023-05-08T00:22:45;4.10;;;0.50;;
20794;SDS011;28087;-33.874;151.240;2023-05-08T00:25:21;1.63;;;0.60;;
20794;SDS011;28087;-33.874;151.240;2023-05-08T00:27:58;2.47;;;0.60;;
20794;SDS011;28087;-33.874;151.240;2023-05-08T00:30:33;2.15;;;0.47;;
20794;SDS011;28087;-33.874;151.240;2023-05-08T00:33:08;4.32;;;0.57;;
20794;SDS011;28087;-33.874;151.240;2023-05-08T00:35:43;1.17;;;0.43;;
20794;SDS011;28087;-33.874;151.240;2023-05-08T00:38:18;1.27;;;0.50;;
20794;SDS011;28087;-33.874;151.240;2023-05-08T00:40:52;4.20;;;0.50;;
20794;SDS011;28087;-33.874;151.240;2023-05-08T00:43:29;1.92;;;0.50;;
20794;SDS011;28087;-33.874;151.240;2023-05-08T00:46:06;1.67;;;0.52;;
20794;SDS011;28087;-33.874;151.240;2023-05-08T00:48:44;1.73;;;0.50;;
20794;SDS011;28087;-33.874;151.240;2023-05-08T00:51:19;1.17;;;0.40;;
20794;SDS011;28087;-33.874;151.240;2023-05-08T00:53:54;2.83;;;0.50;;
20794;SDS011;28087;-33.874;151.240;2023-05-08T00:56:29;1.52;;;0.45;;
20794;SDS011;28087;-33.874;151.240;2023-05-08T00:59:07;1.95;;;0.60;;
20794;SDS011;28087;-33.874;151.240;2023-05-08T01:01:44;2.13;;;0.50;;
20794;SDS011;28087;-33.874;151.240;2023-05-08T01:04:20;3.65;;;0.60;;
20794;SDS011;28087;-33.874;151.240;2023-05-08T01:06:54;2.30;;;0.50;;
20794;SDS011;28087;-33.874;151.240;2023-05-08T01:09:30;1.65;;;0.50;;
20794;SDS011;28087;-33.874;151.240;2023-05-08T01:12:07;4.40;;;0.50;;
20794;SDS011;28087;-33.874;151.240;2023-05-08T01:14:53;1.52;;;0.70;;
20794;SDS011;28087;-33.874;151.240;2023-05-08T01:17:33;2.15;;;0.68;;
20794;SDS011;28087;-33.874;151.240;2023-05-08T01:20:13;2.65;;;0.60;;
20794;SDS011;28087;-33.874;151.240;2023-05-08T01:22:59;1.98;;;0.52;;
20794;SDS011;28087;-33.874;151.240;2023-05-08T01:28:37;2.53;;;0.70;;
20794;SDS011;28087;-33.874;151.240;2023-05-08T01:31:19;4.22;;;0.60;;
20794;SDS011;28087;-33.874;151.240;2023-05-08T01:34:02;3.90;;;0.70;;
20794;SDS011;28087;-33.874;151.240;2023-05-08T01:36:40;3.10;;;0.70;;
20794;SDS011;28087;-33.874;151.240;2023-05-08T01:39:19;2.75;;;0.70;;
20794;SDS011;28087;-33.874;151.240;2023-05-08T01:41:56;2.70;;;0.70;;
20794;SDS011;28087;-33.874;151.240;2023-05-08T01:44:32;2.25;;;0.60;;
20794;SDS011;28087;-33.874;151.240;2023-05-08T01:47:09;2.33;;;0.60;;
20794;SDS011;28087;-33.874;151.240;2023-05-08T01:49:47;4.18;;;0.70;;
20794;SDS011;28087;-33.874;151.240;2023-05-08T01:52:28;2.10;;;0.60;;
20794;SDS011;28087;-33.874;151.240;2023-05-08T01:55:09;4.55;;;0.60;;
20794;SDS011;28087;-33.874;151.240;2023-05-08T01:57:45;3.15;;;0.70;;
20794;SDS011;28087;-33.874;151.240;2023-05-08T02:00:21;23.02;;;1.30;;
20794;SDS011;28087;-33.874;151.240;2023-05-08T02:02:59;11.70;;;1.02;;
20794;SDS011;28087;-33.874;151.240;2023-05-08T02:05:36;6.80;;;0.60;;
20794;SDS011;28087;-33.874;151.240;2023-05-08T02:08:11;2.50;;;0.60;;
20794;SDS011;28087;-33.874;151.240;2023-05-08T02:10:46;2.83;;;0.50;;
20794;SDS011;28087;-33.874;151.240;2023-05-08T02:13:23;3.67;;;0.57;;
20794;SDS011;28087;-33.874;151.240;2023-05-08T02:16:00;3.35;;;0.60;;
20794;SDS011;28087;-33.874;151.240;2023-05-08T02:18:37;2.03;;;0.47;;
20794;SDS011;28087;-33.874;151.240;2023-05-08T02:21:15;1.35;;;0.50;;
20794;SDS011;28087;-33.874;151.240;2023-05-08T02:23:51;1.33;;;0.40;;
20794;SDS011;28087;-33.874;151.240;2023-05-08T02:26:28;2.90;;;0.60;;
20794;SDS011;28087;-33.874;151.240;2023-05-08T02:29:06;3.05;;;0.60;;
20794;SDS011;28087;-33.874;151.240;2023-05-08T02:31:43;3.00;;;0.55;;
20794;SDS011;28087;-33.874;151.240;2023-05-08T02:34:20;2.83;;;0.60;;
20794;SDS011;28087;-33.874;151.240;2023-05-08T02:36:59;2.20;;;0.43;;
20794;SDS011;28087;-33.874;151.240;2023-05-08T02:39:37;2.35;;;0.50;;
20794;SDS011;28087;-33.874;151.240;2023-05-08T02:42:17;2.97;;;0.60;;
20794;SDS011;28087;-33.874;151.240;2023-05-08T02:44:54;4.05;;;0.65;;
20794;SDS011;28087;-33.874;151.240;2023-05-08T02:47:33;2.75;;;0.60;;
20794;SDS011;28087;-33.874;151.240;2023-05-08T02:50:15;3.22;;;0.60;;
20794;SDS011;28087;-33.874;151.240;2023-05-08T02:52:57;3.55;;;0.50;;
20794;SDS011;28087;-33.874;151.240;2023-05-08T02:55:39;2.90;;;0.70;;
20794;SDS011;28087;-33.874;151.240;2023-05-08T02:58:18;2.28;;;0.70;;
20794;SDS011;28087;-33.874;151.240;2023-05-08T03:00:57;6.47;;;0.80;;
20794;SDS011;28087;-33.874;151.240;2023-05-08T03:03:37;2.15;;;0.77;;
20794;SDS011;28087;-33.874;151.240;2023-05-08T03:06:15;3.90;;;0.90;;
20794;SDS011;28087;-33.874;151.240;2023-05-08T03:08:54;5.70;;;0.95;;
20794;SDS011;28087;-33.874;151.240;2023-05-08T03:11:32;3.38;;;0.80;;
20794;SDS011;28087;-33.874;151.240;2023-05-08T03:14:11;3.58;;;1.00;;
20794;SDS011;28087;-33.874;151.240;2023-05-08T03:16:49;4.03;;;0.80;;
20794;SDS011;28087;-33.874;151.240;2023-05-08T03:19:26;2.22;;;0.73;;
20794;SDS011;28087;-33.874;151.240;2023-05-08T03:22:07;4.00;;;0.80;;
20794;SDS011;28087;-33.874;151.240;2023-05-08T03:24:45;4.13;;;0.95;;
20794;SDS011;28087;-33.874;151.240;2023-05-08T03:27:26;4.43;;;1.20;;
20794;SDS011;28087;-33.874;151.240;2023-05-08T03:30:03;5.00;;;1.02;;
20794;SDS011;28087;-33.874;151.240;2023-05-08T03:32:46;3.90;;;0.90;;
20794;SDS011;28087;-33.874;151.240;2023-05-08T03:35:22;4.60;;;0.95;;
20794;SDS011;28087;-33.874;151.240;2023-05-08T03:37:59;6.22;;;1.00;;
20794;SDS011;28087;-33.874;151.240;2023-05-08T03:40:39;6.43;;;0.93;;
20794;SDS011;28087;-33.874;151.240;2023-05-08T03:43:15;6.40;;;1.20;;
20794;SDS011;28087;-33.874;151.240;2023-05-08T03:45:52;5.40;;;1.00;;
20794;SDS011;28087;-33.874;151.240;2023-05-08T03:48:28;4.97;;;1.00;;
20794;SDS011;28087;-33.874;151.240;2023-05-08T03:51:05;4.78;;;1.13;;
20794;SDS011;28087;-33.874;151.240;2023-05-08T03:53:41;5.65;;;1.10;;
20794;SDS011;28087;-33.874;151.240;2023-05-08T03:56:17;5.13;;;1.20;;
20794;SDS011;28087;-33.874;151.240;2023-05-08T03:58:55;6.97;;;1.08;;
20794;SDS011;28087;-33.874;151.240;2023-05-08T04:01:36;4.72;;;1.10;;
20794;SDS011;28087;-33.874;151.240;2023-05-08T04:04:15;5.18;;;0.90;;
20794;SDS011;28087;-33.874;151.240;2023-05-08T04:06:53;5.07;;;1.10;;
20794;SDS011;28087;-33.874;151.240;2023-05-08T04:09:37;3.90;;;1.00;;
20794;SDS011;28087;-33.874;151.240;2023-05-08T04:12:16;4.88;;;1.20;;
20794;SDS011;28087;-33.874;151.240;2023-05-08T04:14:52;3.45;;;0.90;;
20794;SDS011;28087;-33.874;151.240;2023-05-08T04:17:32;4.85;;;1.00;;
20794;SDS011;28087;-33.874;151.240;2023-05-08T04:20:12;5.40;;;1.13;;
20794;SDS011;28087;-33.874;151.240;2023-05-08T04:22:54;6.88;;;1.13;;
20794;SDS011;28087;-33.874;151.240;2023-05-08T04:25:29;3.03;;;0.82;;
20794;SDS011;28087;-33.874;151.240;2023-05-08T04:28:08;5.03;;;1.00;;
20794;SDS011;28087;-33.874;151.240;2023-05-08T04:30:43;5.22;;;1.00;;
20794;SDS011;28087;-33.874;151.240;2023-05-08T04:33:21;3.92;;;0.80;;
20794;SDS011;28087;-33.874;151.240;2023-05-08T04:35:55;4.65;;;0.90;;
20794;SDS011;28087;-33.874;151.240;2023-05-08T04:38:35;7.13;;;1.10;;
20794;SDS011;28087;-33.874;151.240;2023-05-08T04:41:12;5.55;;;1.02;;
20794;SDS011;28087;-33.874;151.240;2023-05-08T04:43:49;5.85;;;1.10;;
20794;SDS011;28087;-33.874;151.240;2023-05-08T04:46:24;4.32;;;1.00;;
20794;SDS011;28087;-33.874;151.240;2023-05-08T04:49:00;4.20;;;1.10;;
20794;SDS011;28087;-33.874;151.240;2023-05-08T04:51:34;3.67;;;1.08;;
20794;SDS011;28087;-33.874;151.240;2023-05-08T04:54:09;4.65;;;0.80;;
20794;SDS011;28087;-33.874;151.240;2023-05-08T04:56:45;4.30;;;1.00;;
20794;SDS011;28087;-33.874;151.240;2023-05-08T04:59:22;4.68;;;0.88;;
20794;SDS011;28087;-33.874;151.240;2023-05-08T05:02:01;2.25;;;0.90;;
20794;SDS011;28087;-33.874;151.240;2023-05-08T05:04:38;3.67;;;1.10;;
20794;SDS011;28087;-33.874;151.240;2023-05-08T05:07:14;2.72;;;0.80;;
20794;SDS011;28087;-33.874;151.240;2023-05-08T05:09:49;3.53;;;0.90;;
20794;SDS011;28087;-33.874;151.240;2023-05-08T05:12:26;3.75;;;0.98;;
20794;SDS011;28087;-33.874;151.240;2023-05-08T05:15:03;5.25;;;1.10;;
20794;SDS011;28087;-33.874;151.240;2023-05-08T05:17:39;5.47;;;1.02;;
20794;SDS011;28087;-33.874;151.240;2023-05-08T05:20:15;3.67;;;0.80;;
20794;SDS011;28087;-33.874;151.240;2023-05-08T05:22:49;4.22;;;1.02;;
20794;SDS011;28087;-33.874;151.240;2023-05-08T05:25:25;3.50;;;0.80;;
20794;SDS011;28087;-33.874;151.240;2023-05-08T05:28:01;4.47;;;1.00;;
20794;SDS011;28087;-33.874;151.240;2023-05-08T05:30:38;4.45;;;0.93;;
20794;SDS011;28087;-33.874;151.240;2023-05-08T05:33:12;6.07;;;0.80;;
20794;SDS011;28087;-33.874;151.240;2023-05-08T05:35:47;2.28;;;0.82;;
20794;SDS011;28087;-33.874;151.240;2023-05-08T05:38:22;3.38;;;1.00;;
20794;SDS011;28087;-33.874;151.240;2023-05-08T05:40:57;4.20;;;0.80;;
20794;SDS011;28087;-33.874;151.240;2023-05-08T05:43:32;5.47;;;1.05;;
20794;SDS011;28087;-33.874;151.240;2023-05-08T05:46:09;3.90;;;0.90;;
20794;SDS011;28087;-33.874;151.240;2023-05-08T05:48:44;4.00;;;0.70;;
20794;SDS011;28087;-33.874;151.240;2023-05-08T05:51:19;2.47;;;0.80;;
20794;SDS011;28087;-33.874;151.240;2023-05-08T05:53:53;4.60;;;0.90;;
20794;SDS011;28087;-33.874;151.240;2023-05-08T05:56:31;3.67;;;0.90;;
20794;SDS011;28087;-33.874;151.240;2023-05-08T05:59:06;3.22;;;0.95;;
20794;SDS011;28087;-33.874;151.240;2023-05-08T06:01:44;5.28;;;1.20;;
20794;SDS011;28087;-33.874;151.240;2023-05-08T06:04:18;2.83;;;0.93;;
20794;SDS011;28087;-33.874;151.240;2023-05-08T06:06:53;3.75;;;0.90;;
20794;SDS011;28087;-33.874;151.240;2023-05-08T06:09:28;2.47;;;0.73;;
20794;SDS011;28087;-33.874;151.240;2023-05-08T06:12:03;4.47;;;1.00;;
20794;SDS011;28087;-33.874;151.240;2023-05-08T06:14:38;5.50;;;1.00;;
20794;SDS011;28087;-33.874;151.240;2023-05-08T06:17:18;3.53;;;1.08;;
20794;SDS011;28087;-33.874;151.240;2023-05-08T06:19:53;4.70;;;1.10;;
20794;SDS011;28087;-33.874;151.240;2023-05-08T06:22:29;5.75;;;1.20;;
20794;SDS011;28087;-33.874;151.240;2023-05-08T06:25:03;6.75;;;1.10;;
20794;SDS011;28087;-33.874;151.240;2023-05-08T06:27:40;3.72;;;0.90;;
20794;SDS011;28087;-33.874;151.240;2023-05-08T06:30:15;3.83;;;0.85;;
20794;SDS011;28087;-33.874;151.240;2023-05-08T06:32:52;3.90;;;0.82;;
20794;SDS011;28087;-33.874;151.240;2023-05-08T06:35:27;3.58;;;1.10;;
20794;SDS011;28087;-33.874;151.240;2023-05-08T06:38:01;4.25;;;0.88;;
20794;SDS011;28087;-33.874;151.240;2023-05-08T06:40:36;4.55;;;1.10;;
20794;SDS011;28087;-33.874;151.240;2023-05-08T06:43:15;3.38;;;0.73;;
20794;SDS011;28087;-33.874;151.240;2023-05-08T06:45:51;4.22;;;0.95;;
20794;SDS011;28087;-33.874;151.240;2023-05-08T06:48:27;5.40;;;0.98;;
20794;SDS011;28087;-33.874;151.240;2023-05-08T06:51:02;4.18;;;1.02;;
20794;SDS011;28087;-33.874;151.240;2023-05-08T06:53:37;5.57;;;1.23;;
20794;SDS011;28087;-33.874;151.240;2023-05-08T06:56:11;4.90;;;1.10;;
20794;SDS011;28087;-33.874;151.240;2023-05-08T06:58:46;7.80;;;1.40;;
20794;SDS011;28087;-33.874;151.240;2023-05-08T07:01:36;6.15;;;1.00;;
20794;SDS011;28087;-33.874;151.240;2023-05-08T07:04:13;6.40;;;1.10;;
20794;SDS011;28087;-33.874;151.240;2023-05-08T07:06:49;2.55;;;0.70;;
20794;SDS011;28087;-33.874;151.240;2023-05-08T07:09:23;3.75;;;0.70;;
20794;SDS011;28087;-33.874;151.240;2023-05-08T07:11:58;6.13;;;0.95;;
20794;SDS011;28087;-33.874;151.240;2023-05-08T07:14:33;2.88;;;0.93;;
20794;SDS011;28087;-33.874;151.240;2023-05-08T07:17:08;2.97;;;0.80;;
20794;SDS011;28087;-33.874;151.240;2023-05-08T07:19:48;3.15;;;0.90;;
20794;SDS011;28087;-33.874;151.240;2023-05-08T07:22:23;3.95;;;0.90;;
20794;SDS011;28087;-33.874;151.240;2023-05-08T07:24:58;2.40;;;0.80;;
20794;SDS011;28087;-33.874;151.240;2023-05-08T07:27:32;4.18;;;0.95;;
20794;SDS011;28087;-33.874;151.240;2023-05-08T07:30:09;3.60;;;0.90;;
20794;SDS011;28087;-33.874;151.240;2023-05-08T07:32:45;3.97;;;0.90;;
20794;SDS011;28087;-33.874;151.240;2023-05-08T07:35:22;4.90;;;0.98;;
20794;SDS011;28087;-33.874;151.240;2023-05-08T07:37:56;2.90;;;0.98;;
20794;SDS011;28087;-33.874;151.240;2023-05-08T07:40:31;3.35;;;1.00;;
20794;SDS011;28087;-33.874;151.240;2023-05-08T07:43:06;3.83;;;1.00;;
20794;SDS011;28087;-33.874;151.240;2023-05-08T07:45:41;4.90;;;1.05;;
20794;SDS011;28087;-33.874;151.240;2023-05-08T07:48:16;3.95;;;0.90;;
20794;SDS011;28087;-33.874;151.240;2023-05-08T07:50:53;5.13;;;1.30;;
20794;SDS011;28087;-33.874;151.240;2023-05-08T07:53:27;5.22;;;1.27;;
20794;SDS011;28087;-33.874;151.240;2023-05-08T07:56:03;3.30;;;1.20;;
20794;SDS011;28087;-33.874;151.240;2023-05-08T07:58:40;3.40;;;0.90;;
20794;SDS011;28087;-33.874;151.240;2023-05-08T08:01:15;2.67;;;0.80;;
20794;SDS011;28087;-33.874;151.240;2023-05-08T08:03:51;3.25;;;0.90;;
20794;SDS011;28087;-33.874;151.240;2023-05-08T08:06:28;5.15;;;0.80;;
20794;SDS011;28087;-33.874;151.240;2023-05-08T08:09:05;3.30;;;0.80;;
20794;SDS011;28087;-33.874;151.240;2023-05-08T08:11:39;3.00;;;0.88;;
20794;SDS011;28087;-33.874;151.240;2023-05-08T08:14:17;5.15;;;1.10;;
20794;SDS011;28087;-33.874;151.240;2023-05-08T08:16:52;4.78;;;1.60;;
20794;SDS011;28087;-33.874;151.240;2023-05-08T08:19:27;7.28;;;2.08;;
20794;SDS011;28087;-33.874;151.240;2023-05-08T08:22:04;5.75;;;2.58;;
20794;SDS011;28087;-33.874;151.240;2023-05-08T08:24:39;6.05;;;2.25;;
20794;SDS011;28087;-33.874;151.240;2023-05-08T08:27:14;6.93;;;1.70;;
20794;SDS011;28087;-33.874;151.240;2023-05-08T08:29:48;6.60;;;1.77;;
20794;SDS011;28087;-33.874;151.240;2023-05-08T08:32:43;7.20;;;1.83;;
20794;SDS011;28087;-33.874;151.240;2023-05-08T08:35:19;4.88;;;1.60;;
20794;SDS011;28087;-33.874;151.240;2023-05-08T08:38:01;5.05;;;1.50;;
20794;SDS011;28087;-33.874;151.240;2023-05-08T08:40:38;5.82;;;1.40;;
20794;SDS011;28087;-33.874;151.240;2023-05-08T08:43:13;5.63;;;1.40;;
20794;SDS011;28087;-33.874;151.240;2023-05-08T08:45:48;4.90;;;1.40;;
20794;SDS011;28087;-33.874;151.240;2023-05-08T08:48:23;5.20;;;1.50;;
20794;SDS011;28087;-33.874;151.240;2023-05-08T08:51:01;3.22;;;1.25;;
20794;SDS011;28087;-33.874;151.240;2023-05-08T08:53:41;6.13;;;1.40;;
20794;SDS011;28087;-33.874;151.240;2023-05-08T08:56:16;3.70;;;1.45;;
20794;SDS011;28087;-33.874;151.240;2023-05-08T08:58:56;4.40;;;1.40;;
20794;SDS011;28087;-33.874;151.240;2023-05-08T09:01:32;5.00;;;1.63;;
20794;SDS011;28087;-33.874;151.240;2023-05-08T09:04:08;4.75;;;1.70;;
20794;SDS011;28087;-33.874;151.240;2023-05-08T09:06:43;3.90;;;1.50;;
20794;SDS011;28087;-33.874;151.240;2023-05-08T09:09:22;3.42;;;1.40;;
20794;SDS011;28087;-33.874;151.240;2023-05-08T09:11:58;5.28;;;1.60;;
20794;SDS011;28087;-33.874;151.240;2023-05-08T09:14:33;4.38;;;1.58;;
20794;SDS011;28087;-33.874;151.240;2023-05-08T09:17:09;4.72;;;1.70;;
20794;SDS011;28087;-33.874;151.240;2023-05-08T09:19:44;4.40;;;1.30;;
20794;SDS011;28087;-33.874;151.240;2023-05-08T09:22:22;3.95;;;1.90;;
20794;SDS011;28087;-33.874;151.240;2023-05-08T09:24:59;4.60;;;1.60;;
20794;SDS011;28087;-33.874;151.240;2023-05-08T09:27:34;3.85;;;1.60;;
20794;SDS011;28087;-33.874;151.240;2023-05-08T09:30:11;4.18;;;1.70;;
20794;SDS011;28087;-33.874;151.240;2023-05-08T09:32:46;2.70;;;1.20;;
20794;SDS011;28087;-33.874;151.240;2023-05-08T09:35:21;4.25;;;1.60;;
20794;SDS011;28087;-33.874;151.240;2023-05-08T09:38:09;3.55;;;1.50;;
20794;SDS011;28087;-33.874;151.240;2023-05-08T09:41:10;5.82;;;2.78;;
20794;SDS011;28087;-33.874;151.240;2023-05-08T09:43:58;2.63;;;1.25;;
20794;SDS011;28087;-33.874;151.240;2023-05-08T09:46:51;5.88;;;3.13;;
20794;SDS011;28087;-33.874;151.240;2023-05-08T09:49:55;4.38;;;2.10;;
20794;SDS011;28087;-33.874;151.240;2023-05-08T09:53:00;4.13;;;1.95;;
20794;SDS011;28087;-33.874;151.240;2023-05-08T09:55:45;3.63;;;1.52;;
20794;SDS011;28087;-33.874;151.240;2023-05-08T09:58:49;3.28;;;1.55;;
20794;SDS011;28087;-33.874;151.240;2023-05-08T10:01:26;5.57;;;1.60;;
20794;SDS011;28087;-33.874;151.240;2023-05-08T10:04:31;6.20;;;1.77;;
20794;SDS011;28087;-33.874;151.240;2023-05-08T10:07:06;3.63;;;1.70;;
20794;SDS011;28087;-33.874;151.240;2023-05-08T10:09:43;3.38;;;1.70;;
20794;SDS011;28087;-33.874;151.240;2023-05-08T10:12:59;4.25;;;1.80;;
20794;SDS011;28087;-33.874;151.240;2023-05-08T10:15:37;4.30;;;1.77;;
20794;SDS011;28087;-33.874;151.240;2023-05-08T10:18:18;4.43;;;1.63;;
20794;SDS011;28087;-33.874;151.240;2023-05-08T10:20:54;4.20;;;1.83;;
20794;SDS011;28087;-33.874;151.240;2023-05-08T10:23:29;4.00;;;1.70;;
20794;SDS011;28087;-33.874;151.240;2023-05-08T10:26:06;3.47;;;1.60;;
20794;SDS011;28087;-33.874;151.240;2023-05-08T10:28:42;5.55;;;2.00;;
20794;SDS011;28087;-33.874;151.240;2023-05-08T10:31:19;4.13;;;1.60;;
20794;SDS011;28087;-33.874;151.240;2023-05-08T10:34:30;4.20;;;1.60;;
20794;SDS011;28087;-33.874;151.240;2023-05-08T10:37:06;4.03;;;1.40;;
20794;SDS011;28087;-33.874;151.240;2023-05-08T10:39:42;5.38;;;1.35;;
20794;SDS011;28087;-33.874;151.240;2023-05-08T10:42:33;3.28;;;1.25;;
20794;SDS011;28087;-33.874;151.240;2023-05-08T10:45:08;4.45;;;1.30;;
20794;SDS011;28087;-33.874;151.240;2023-05-08T10:47:53;3.35;;;1.63;;
20794;SDS011;28087;-33.874;151.240;2023-05-08T10:50:33;2.85;;;1.40;;
20794;SDS011;28087;-33.874;151.240;2023-05-08T10:53:15;3.40;;;1.42;;
20794;SDS011;28087;-33.874;151.240;2023-05-08T10:55:51;2.80;;;1.35;;
20794;SDS011;28087;-33.874;151.240;2023-05-08T10:58:28;3.90;;;1.27;;
20794;SDS011;28087;-33.874;151.240;2023-05-08T11:01:13;3.78;;;1.30;;
20794;SDS011;28087;-33.874;151.240;2023-05-08T11:03:50;3.72;;;1.30;;
20794;SDS011;28087;-33.874;151.240;2023-05-08T11:09:43;3.42;;;1.67;;
20794;SDS011;28087;-33.874;151.240;2023-05-08T11:12:19;3.17;;;1.10;;
20794;SDS011;28087;-33.874;151.240;2023-05-08T11:14:56;3.33;;;1.30;;
20794;SDS011;28087;-33.874;151.240;2023-05-08T11:17:33;2.10;;;0.90;;
20794;SDS011;28087;-33.874;151.240;2023-05-08T11:20:10;2.40;;;1.00;;
20794;SDS011;28087;-33.874;151.240;2023-05-08T11:22:47;3.40;;;1.27;;
20794;SDS011;28087;-33.874;151.240;2023-05-08T11:25:22;2.25;;;1.00;;
20794;SDS011;28087;-33.874;151.240;2023-05-08T11:28:15;2.70;;;1.00;;
20794;SDS011;28087;-33.874;151.240;2023-05-08T11:30:53;2.22;;;0.90;;
20794;SDS011;28087;-33.874;151.240;2023-05-08T11:33:29;2.63;;;1.10;;
20794;SDS011;28087;-33.874;151.240;2023-05-08T11:36:15;2.45;;;1.00;;
20794;SDS011;28087;-33.874;151.240;2023-05-08T11:41:42;2.65;;;1.20;;
20794;SDS011;28087;-33.874;151.240;2023-05-08T11:44:18;2.65;;;1.08;;
20794;SDS011;28087;-33.874;151.240;2023-05-08T11:46:53;3.55;;;1.30;;
20794;SDS011;28087;-33.874;151.240;2023-05-08T11:49:28;3.33;;;1.25;;
20794;SDS011;28087;-33.874;151.240;2023-05-08T11:52:05;1.55;;;0.90;;
20794;SDS011;28087;-33.874;151.240;2023-05-08T11:54:40;5.57;;;1.00;;
20794;SDS011;28087;-33.874;151.240;2023-05-08T11:57:16;2.28;;;1.20;;
20794;SDS011;28087;-33.874;151.240;2023-05-08T11:59:52;2.38;;;1.10;;
20794;SDS011;28087;-33.874;151.240;2023-05-08T12:02:34;1.90;;;1.00;;
20794;SDS011;28087;-33.874;151.240;2023-05-08T12:05:09;2.80;;;1.20;;
20794;SDS011;28087;-33.874;151.240;2023-05-08T12:07:46;2.90;;;0.90;;
20794;SDS011;28087;-33.874;151.240;2023-05-08T12:10:21;4.95;;;1.58;;
20794;SDS011;28087;-33.874;151.240;2023-05-08T12:12:57;3.65;;;1.33;;
20794;SDS011;28087;-33.874;151.240;2023-05-08T12:15:32;2.63;;;1.10;;
20794;SDS011;28087;-33.874;151.240;2023-05-08T12:18:07;3.92;;;1.40;;
20794;SDS011;28087;-33.874;151.240;2023-05-08T12:20:42;3.28;;;1.10;;
20794;SDS011;28087;-33.874;151.240;2023-05-08T12:23:20;2.35;;;1.10;;
20794;SDS011;28087;-33.874;151.240;2023-05-08T12:25:58;2.03;;;1.00;;
20794;SDS011;28087;-33.874;151.240;2023-05-08T12:28:33;1.63;;;1.00;;
20794;SDS011;28087;-33.874;151.240;2023-05-08T12:31:07;2.30;;;1.00;;
20794;SDS011;28087;-33.874;151.240;2023-05-08T12:33:42;2.00;;;1.00;;
20794;SDS011;28087;-33.874;151.240;2023-05-08T12:36:17;2.92;;;1.20;;
20794;SDS011;28087;-33.874;151.240;2023-05-08T12:39:07;1.60;;;0.80;;
20794;SDS011;28087;-33.874;151.240;2023-05-08T12:41:47;2.15;;;1.20;;
20794;SDS011;28087;-33.874;151.240;2023-05-08T12:44:22;3.03;;;0.90;;
20794;SDS011;28087;-33.874;151.240;2023-05-08T12:46:57;2.05;;;0.90;;
20794;SDS011;28087;-33.874;151.240;2023-05-08T12:49:32;2.47;;;1.10;;
20794;SDS011;28087;-33.874;151.240;2023-05-08T12:52:06;2.33;;;1.08;;
20794;SDS011;28087;-33.874;151.240;2023-05-08T12:54:47;2.33;;;1.00;;
20794;SDS011;28087;-33.874;151.240;2023-05-08T12:57:23;2.90;;;1.10;;
20794;SDS011;28087;-33.874;151.240;2023-05-08T13:00:02;2.10;;;0.95;;
20794;SDS011;28087;-33.874;151.240;2023-05-08T13:02:36;2.45;;;1.10;;
20794;SDS011;28087;-33.874;151.240;2023-05-08T13:05:18;2.50;;;1.00;;
20794;SDS011;28087;-33.874;151.240;2023-05-08T13:07:58;2.47;;;1.20;;
20794;SDS011;28087;-33.874;151.240;2023-05-08T13:10:44;3.05;;;1.10;;
20794;SDS011;28087;-33.874;151.240;2023-05-08T13:13:20;3.10;;;1.30;;
20794;SDS011;28087;-33.874;151.240;2023-05-08T13:16:11;2.90;;;1.25;;
20794;SDS011;28087;-33.874;151.240;2023-05-08T13:18:54;3.40;;;1.40;;
20794;SDS011;28087;-33.874;151.240;2023-05-08T13:21:29;2.78;;;1.20;;
20794;SDS011;28087;-33.874;151.240;2023-05-08T13:24:30;4.15;;;1.20;;
20794;SDS011;28087;-33.874;151.240;2023-05-08T13:27:07;2.50;;;1.00;;
20794;SDS011;28087;-33.874;151.240;2023-05-08T13:29:44;2.90;;;1.30;;
20794;SDS011;28087;-33.874;151.240;2023-05-08T13:32:36;3.10;;;1.23;;
20794;SDS011;28087;-33.874;151.240;2023-05-08T13:35:11;2.95;;;1.20;;
20794;SDS011;28087;-33.874;151.240;2023-05-08T13:37:47;3.08;;;1.30;;
20794;SDS011;28087;-33.874;151.240;2023-05-08T13:40:41;2.90;;;1.20;;
20794;SDS011;28087;-33.874;151.240;2023-05-08T13:43:18;3.03;;;1.20;;
20794;SDS011;28087;-33.874;151.240;2023-05-08T13:45:53;3.42;;;1.15;;
20794;SDS011;28087;-33.874;151.240;2023-05-08T13:48:54;3.90;;;1.15;;
20794;SDS011;28087;-33.874;151.240;2023-05-08T13:51:29;3.55;;;1.20;;
20794;SDS011;28087;-33.874;151.240;2023-05-08T13:54:04;3.20;;;1.30;;
20794;SDS011;28087;-33.874;151.240;2023-05-08T13:56:38;2.42;;;1.20;;
20794;SDS011;28087;-33.874;151.240;2023-05-08T13:59:16;3.53;;;1.30;;
20794;SDS011;28087;-33.874;151.240;2023-05-08T14:01:51;3.25;;;1.20;;
20794;SDS011;28087;-33.874;151.240;2023-05-08T14:04:38;2.45;;;1.20;;
20794;SDS011;28087;-33.874;151.240;2023-05-08T14:07:12;5.25;;;1.48;;
20794;SDS011;28087;-33.874;151.240;2023-05-08T14:09:48;3.13;;;1.20;;
20794;SDS011;28087;-33.874;151.240;2023-05-08T14:12:22;2.33;;;1.20;;
20794;SDS011;28087;-33.874;151.240;2023-05-08T14:15:00;1.90;;;1.10;;
20794;SDS011;28087;-33.874;151.240;2023-05-08T14:17:34;2.60;;;1.00;;
20794;SDS011;28087;-33.874;151.240;2023-05-08T14:20:10;4.88;;;1.30;;
20794;SDS011;28087;-33.874;151.240;2023-05-08T14:22:45;3.42;;;1.33;;
20794;SDS011;28087;-33.874;151.240;2023-05-08T14:25:22;2.00;;;1.10;;
20794;SDS011;28087;-33.874;151.240;2023-05-08T14:27:56;2.22;;;1.05;;
20794;SDS011;28087;-33.874;151.240;2023-05-08T14:30:53;1.50;;;0.90;;
20794;SDS011;28087;-33.874;151.240;2023-05-08T14:33:28;2.03;;;0.90;;
20794;SDS011;28087;-33.874;151.240;2023-05-08T14:36:03;2.58;;;0.98;;
20794;SDS011;28087;-33.874;151.240;2023-05-08T14:38:37;1.48;;;1.00;;
20794;SDS011;28087;-33.874;151.240;2023-05-08T14:41:13;1.45;;;0.90;;
20794;SDS011;28087;-33.874;151.240;2023-05-08T14:43:47;1.55;;;1.00;;
20794;SDS011;28087;-33.874;151.240;2023-05-08T14:46:24;0.95;;;0.77;;
20794;SDS011;28087;-33.874;151.240;2023-05-08T14:48:59;1.92;;;1.00;;
20794;SDS011;28087;-33.874;151.240;2023-05-08T14:51:34;3.08;;;1.10;;
20794;SDS011;28087;-33.874;151.240;2023-05-08T14:54:09;2.75;;;1.00;;
20794;SDS011;28087;-33.874;151.240;2023-05-08T14:56:44;1.83;;;1.00;;
20794;SDS011;28087;-33.874;151.240;2023-05-08T14:59:18;2.08;;;1.00;;
20794;SDS011;28087;-33.874;151.240;2023-05-08T15:01:56;6.40;;;1.10;;
20794;SDS011;28087;-33.874;151.240;2023-05-08T15:04:31;1.88;;;0.93;;
20794;SDS011;28087;-33.874;151.240;2023-05-08T15:07:10;3.00;;;1.10;;
20794;SDS011;28087;-33.874;151.240;2023-05-08T15:09:45;2.03;;;1.00;;
20794;SDS011;28087;-33.874;151.240;2023-05-08T15:12:20;2.10;;;1.10;;
20794;SDS011;28087;-33.874;151.240;2023-05-08T15:14:56;2.42;;;0.95;;
20794;SDS011;28087;-33.874;151.240;2023-05-08T15:17:35;4.25;;;1.20;;
20794;SDS011;28087;-33.874;151.240;2023-05-08T15:20:11;1.63;;;0.90;;